Time,TemperatureF,DewpointF,PressureIn,WindDirection,WindDirectionDegrees,WindSpeedMPH,WindSpeedGustMPH,Humidity,HourlyPrecipIn,Conditions,Clouds,dailyrainin,SolarRadiationWatts/m^2,SoftwareType,DateUTC
2013-04-06 00:02:00,46.0,29.0,30.00,SSW,200,10.0,16.0,50,-99.99,,,-99.99,-0.100000,,2013-04-06 06:02:00,
2013-04-06 00:11:00,46.0,29.0,30.00,SSW,201,10.0,15.0,52,-99.99,,,-99.99,-0.200000,,2013-04-06 06:11:00,
2013-04-06 00:21:00,45.0,29.0,29.99,SSW,207,10.0,13.0,52,-99.99,,,-99.99,-0.200000,,2013-04-06 06:21:00,
2013-04-06 00:32:00,45.0,29.0,29.99,SSW,207,11.0,16.0,52,-99.99,,,-99.99,-0.100000,,2013-04-06 06:32:00,
2013-04-06 00:42:00,45.0,29.0,29.99,SSW,196,9.0,13.0,53,-99.99,,,-99.99,0.000000,,2013-04-06 06:42:00,
2013-04-06 00:52:00,45.0,29.0,29.99,SSW,202,10.0,13.0,52,-99.99,,,-99.99,0.000000,,2013-04-06 06:52:00,
2013-04-06 01:02:00,46.0,29.0,29.99,SSW,203,10.0,14.0,52,-99.99,,,-99.99,0.000000,,2013-04-06 07:02:00,
2013-04-06 01:11:00,45.0,29.0,29.98,SSW,210,9.0,14.0,54,-99.99,,,-99.99,0.100000,,2013-04-06 07:11:00,
2013-04-06 01:21:00,46.0,29.0,29.99,SSW,196,9.0,13.0,52,-99.99,,,-99.99,-0.200000,,2013-04-06 07:21:00,
2013-04-06 01:32:00,45.0,29.0,29.98,SSW,199,9.0,13.0,52,-99.99,,,-99.99,0.000000,,2013-04-06 07:32:00,
2013-04-06 01:42:00,45.0,29.0,29.98,SSW,201,9.0,14.0,54,-99.99,,,-99.99,-0.300000,,2013-04-06 07:42:00,
2013-04-06 01:52:00,44.0,29.0,29.98,SSW,205,9.0,12.0,54,-99.99,,,-99.99,-0.200000,,2013-04-06 07:52:00,
2013-04-06 02:02:00,45.0,29.0,29.98,SSW,201,9.0,13.0,52,-99.99,,,-99.99,0.000000,,2013-04-06 08:02:00,
2013-04-06 02:11:00,44.0,28.0,29.98,South,188,4.0,6.0,54,-99.99,,,-99.99,0.100000,,2013-04-06 08:11:00,
2013-04-06 02:21:00,40.0,28.0,29.98,SSW,197,6.0,11.0,62,-99.99,,,-99.99,0.100000,,2013-04-06 08:21:00,
2013-04-06 02:32:00,44.0,28.0,29.97,SSW,203,9.0,11.0,54,-99.99,,,-99.99,0.000000,,2013-04-06 08:32:00,
2013-04-06 02:42:00,45.0,28.0,29.97,SSW,213,9.0,12.0,51,-99.99,,,-99.99,0.000000,,2013-04-06 08:42:00,
2013-04-06 02:51:00,44.0,28.0,29.97,SW,229,6.0,11.0,52,-99.99,,,-99.99,0.000000,,2013-04-06 08:51:00,
2013-04-06 03:02:00,43.0,28.0,29.97,WSW,243,5.0,8.0,54,-99.99,,,-99.99,0.000000,,2013-04-06 09:02:00,
2013-04-06 03:11:00,41.0,28.0,29.97,WSW,249,4.0,6.0,59,-99.99,,,-99.99,0.100000,,2013-04-06 09:11:00,
2013-04-06 03:21:00,41.0,28.0,29.97,West,271,3.0,4.0,61,-99.99,,,-99.99,-0.100000,,2013-04-06 09:21:00,
2013-04-06 03:32:00,39.0,29.0,29.97,North,2,3.0,5.0,65,-99.99,,,-99.99,-0.100000,,2013-04-06 09:32:00,
2013-04-06 03:42:00,37.0,29.0,29.97,NNE,14,4.0,5.0,72,-99.99,,,-99.99,0.000000,,2013-04-06 09:42:00,
2013-04-06 03:52:00,36.0,29.0,29.97,North,2,3.0,4.0,75,-99.99,,,-99.99,-0.100000,,2013-04-06 09:52:00,
2013-04-06 04:02:00,36.0,29.0,29.97,NNE,24,3.0,4.0,77,-99.99,,,-99.99,-0.100000,,2013-04-06 10:02:00,
2013-04-06 04:12:00,34.0,29.0,29.97,NNE,28,4.0,4.0,82,-99.99,,,-99.99,0.000000,,2013-04-06 10:12:00,
2013-04-06 04:22:00,35.0,29.0,29.97,NE,53,3.0,3.0,78,-99.99,,,-99.99,0.000000,,2013-04-06 10:22:00,
2013-04-06 04:32:00,33.0,28.0,29.97,East,93,2.0,3.0,81,-99.99,,,-99.99,0.000000,,2013-04-06 10:32:00,
2013-04-06 04:42:00,33.0,28.0,29.97,ESE,110,2.0,3.0,82,-99.99,,,-99.99,-0.100000,,2013-04-06 10:42:00,
2013-04-06 04:52:00,34.0,29.0,29.97,SSE,157,2.0,2.0,81,-99.99,,,-99.99,-0.100000,,2013-04-06 10:52:00,
2013-04-06 05:02:00,34.0,29.0,29.98,South,187,2.0,2.0,81,-99.99,,,-99.99,0.000000,,2013-04-06 11:02:00,
2013-04-06 05:11:00,35.0,29.0,29.98,WSW,252,1.0,2.0,80,-99.99,,,-99.99,0.000000,,2013-04-06 11:11:00,
2013-04-06 05:22:00,34.0,29.0,29.98,West,280,2.0,2.0,81,-99.99,,,-99.99,-0.100000,,2013-04-06 11:22:00,
2013-04-06 05:32:00,36.0,30.0,29.98,SSW,195,2.0,3.0,79,-99.99,,,-99.99,-0.100000,,2013-04-06 11:32:00,
2013-04-06 05:41:00,37.0,31.0,29.98,SSW,210,2.0,2.0,76,-99.99,,,-99.99,0.100000,,2013-04-06 11:41:00,
2013-04-06 05:52:00,38.0,31.0,29.98,SSE,163,3.0,4.0,76,-99.99,,,-99.99,0.200000,,2013-04-06 11:52:00,
2013-04-06 06:01:00,38.0,32.0,29.97,SE,139,6.0,6.0,78,-99.99,,,-99.99,-0.100000,,2013-04-06 12:01:00,
2013-04-06 06:11:00,38.0,32.0,29.97,SE,146,5.0,5.0,78,-99.99,,,-99.99,-0.100000,,2013-04-06 12:11:00,
2013-04-06 06:21:00,38.0,32.0,29.97,ESE,120,5.0,6.0,77,-99.99,,,-99.99,0.000000,,2013-04-06 12:21:00,
2013-04-06 06:32:00,39.0,32.0,29.97,ESE,113,4.0,6.0,76,-99.99,,,-99.99,0.000000,,2013-04-06 12:32:00,
2013-04-06 06:42:00,41.0,32.0,29.97,SSE,168,3.0,7.0,69,-99.99,,,-99.99,0.000000,,2013-04-06 12:42:00,
2013-04-06 06:52:00,41.0,32.0,29.97,ESE,103,3.0,4.0,69,-99.99,,,-99.99,-0.100000,,2013-04-06 12:52:00,
2013-04-06 07:02:00,41.0,32.0,29.97,SE,132,4.0,5.0,69,-99.99,,,-99.99,-0.300000,,2013-04-06 13:02:00,
2013-04-06 07:22:00,41.0,33.0,29.96,North,0,6.0,9.0,72,-99.99,,,-99.99,1.200000,,2013-04-06 13:22:00,
2013-04-06 07:32:00,43.0,32.0,29.97,SSE,150,5.0,9.0,64,-99.99,,,-99.99,3.400000,,2013-04-06 13:32:00,
2013-04-06 07:42:00,42.0,33.0,29.98,North,353,6.0,9.0,70,-99.99,,,-99.99,12.100000,,2013-04-06 13:42:00,
2013-04-06 07:52:00,43.0,33.0,29.99,WNW,291,7.0,11.0,66,-99.99,,,-99.99,24.400000,,2013-04-06 13:52:00,
2013-04-06 08:03:00,42.0,33.0,29.99,NW,309,4.0,7.0,70,-99.99,,,-99.99,32.599998,,2013-04-06 14:03:00,
2013-04-06 08:21:00,43.0,33.0,29.99,ESE,115,1.0,2.0,67,-99.99,,,-99.99,51.099998,,2013-04-06 14:21:00,
2013-04-06 08:32:00,42.0,34.0,29.99,ENE,74,2.0,3.0,70,-99.99,,,-99.99,75.800003,,2013-04-06 14:32:00,
2013-04-06 08:42:00,43.0,34.0,29.98,ENE,66,5.0,5.0,71,-99.99,,,-99.99,99.000000,,2013-04-06 14:42:00,
2013-04-06 08:52:00,43.0,34.0,29.99,East,81,3.0,4.0,70,-99.99,,,-99.99,74.900002,,2013-04-06 14:52:00,
2013-04-06 09:01:00,44.0,35.0,29.99,SSE,165,4.0,5.0,70,-99.99,,,-99.99,106.199997,,2013-04-06 15:01:00,
2013-04-06 09:11:00,45.0,33.0,30.00,SW,219,6.0,9.0,62,-99.99,,,-99.99,118.900002,,2013-04-06 15:11:00,
2013-04-06 09:21:00,46.0,33.0,30.00,SW,226,7.0,10.0,59,-99.99,,,-99.99,166.899994,,2013-04-06 15:21:00,
2013-04-06 09:32:00,46.0,32.0,30.00,SSW,209,13.0,20.0,58,-99.99,,,-99.99,203.399994,,2013-04-06 15:32:00,
2013-04-06 09:42:00,46.0,33.0,30.00,SSW,205,13.0,20.0,59,-99.99,,,-99.99,166.699997,,2013-04-06 15:42:00,
2013-04-06 09:52:00,46.0,33.0,30.00,SSW,209,17.0,25.0,60,-99.99,,,-99.99,225.500000,,2013-04-06 15:52:00,
2013-04-06 10:04:00,47.0,34.0,30.00,SSW,213,16.0,25.0,60,-99.99,,,-99.99,276.600006,,2013-04-06 16:04:00,
2013-04-06 10:15:00,46.0,34.0,30.00,SSW,209,13.0,18.0,62,-99.99,,,-99.99,286.600006,,2013-04-06 16:15:00,
2013-04-06 10:22:00,46.0,34.0,30.00,SSW,205,18.0,23.0,61,-99.99,,,-99.99,346.299988,,2013-04-06 16:22:00,
2013-04-06 10:32:00,47.0,35.0,30.00,SSW,208,12.0,19.0,61,-99.99,,,-99.99,268.000000,,2013-04-06 16:32:00,
2013-04-06 10:41:00,47.0,34.0,30.00,SSW,212,13.0,20.0,61,-99.99,,,-99.99,265.899994,,2013-04-06 16:41:00,
2013-04-06 10:52:00,48.0,35.0,30.00,SSW,203,14.0,19.0,61,-99.99,,,-99.99,623.000000,,2013-04-06 16:52:00,
2013-04-06 11:02:00,48.0,36.0,29.99,SSW,198,16.0,21.0,60,-99.99,,,-99.99,635.500000,,2013-04-06 17:02:00,
2013-04-06 11:11:00,49.0,36.0,30.00,SSW,207,14.0,23.0,60,-99.99,,,-99.99,653.500000,,2013-04-06 17:11:00,
2013-04-06 11:21:00,50.0,36.0,29.99,SSW,213,14.0,20.0,59,-99.99,,,-99.99,613.500000,,2013-04-06 17:21:00,
2013-04-06 11:32:00,50.0,36.0,29.99,SW,223,11.0,17.0,58,-99.99,,,-99.99,288.399994,,2013-04-06 17:32:00,
2013-04-06 11:42:00,49.0,36.0,29.99,SSW,210,15.0,22.0,59,-99.99,,,-99.99,255.600006,,2013-04-06 17:42:00,
2013-04-06 11:52:00,49.0,36.0,29.99,SSW,213,17.0,26.0,59,-99.99,,,-99.99,430.600006,,2013-04-06 17:52:00,
2013-04-06 12:02:00,51.0,37.0,29.99,SW,221,16.0,26.0,57,-99.99,,,-99.99,859.000000,,2013-04-06 18:02:00,
2013-04-06 12:12:00,51.0,36.0,29.99,SSW,210,17.0,24.0,57,-99.99,,,-99.99,355.200012,,2013-04-06 18:12:00,
2013-04-06 12:21:00,50.0,36.0,29.99,SSW,207,20.0,26.0,56,-99.99,,,-99.99,341.399994,,2013-04-06 18:21:00,
2013-04-06 12:32:00,51.0,36.0,29.99,SSW,211,16.0,27.0,57,-99.99,,,-99.99,585.700012,,2013-04-06 18:32:00,
2013-04-06 12:42:00,51.0,36.0,29.99,SSW,211,17.0,23.0,55,-99.99,,,-99.99,471.700012,,2013-04-06 18:42:00,
2013-04-06 12:51:00,52.0,37.0,29.99,SW,216,17.0,28.0,56,-99.99,,,-99.99,566.799988,,2013-04-06 18:51:00,
2013-04-06 13:02:00,51.0,37.0,29.99,SSW,213,20.0,29.0,57,-99.99,,,-99.99,568.599976,,2013-04-06 19:02:00,
2013-04-06 13:22:00,51.0,37.0,29.98,SW,215,15.0,25.0,58,-99.99,,,-99.99,390.899994,,2013-04-06 19:22:00,
2013-04-06 13:32:00,51.0,35.0,29.98,SW,222,15.0,22.0,54,-99.99,,,-99.99,432.500000,,2013-04-06 19:32:00,
2013-04-06 13:41:00,52.0,35.0,29.98,SW,221,19.0,26.0,53,-99.99,,,-99.99,709.200012,,2013-04-06 19:41:00,
2013-04-06 13:52:00,51.0,34.0,29.98,SW,222,17.0,24.0,50,-99.99,,,-99.99,345.100006,,2013-04-06 19:52:00,
2013-04-06 14:02:00,51.0,35.0,29.98,SW,216,17.0,26.0,52,-99.99,,,-99.99,567.599976,,2013-04-06 20:02:00,
2013-04-06 14:11:00,52.0,35.0,29.97,SW,217,16.0,25.0,52,-99.99,,,-99.99,467.399994,,2013-04-06 20:11:00,
2013-04-06 14:21:00,51.0,35.0,29.97,SSW,211,19.0,32.0,52,-99.99,,,-99.99,430.700012,,2013-04-06 20:21:00,
2013-04-06 14:32:00,51.0,34.0,29.96,SW,216,18.0,26.0,51,-99.99,,,-99.99,387.100006,,2013-04-06 20:32:00,
2013-04-06 14:41:00,51.0,34.0,29.96,SW,214,18.0,29.0,51,-99.99,,,-99.99,332.299988,,2013-04-06 20:41:00,
2013-04-06 14:52:00,51.0,34.0,29.97,SSW,213,19.0,26.0,52,-99.99,,,-99.99,308.000000,,2013-04-06 20:52:00,
2013-04-06 15:02:00,52.0,35.0,29.96,SSW,212,17.0,27.0,53,-99.99,,,-99.99,306.799988,,2013-04-06 21:02:00,
2013-04-06 15:12:00,52.0,35.0,29.96,SSW,213,15.0,27.0,52,-99.99,,,-99.99,504.500000,,2013-04-06 21:12:00,
2013-04-06 15:21:00,53.0,35.0,29.95,SSW,209,15.0,23.0,50,-99.99,,,-99.99,378.500000,,2013-04-06 21:21:00,
2013-04-06 15:32:00,53.0,34.0,29.95,SW,222,17.0,26.0,48,-99.99,,,-99.99,526.900024,,2013-04-06 21:32:00,
2013-04-06 15:42:00,54.0,33.0,29.95,SW,224,16.0,26.0,44,-99.99,,,-99.99,629.799988,,2013-04-06 21:42:00,
2013-04-06 15:52:00,54.0,34.0,29.95,SW,224,16.0,25.0,45,-99.99,,,-99.99,467.700012,,2013-04-06 21:52:00,
2013-04-06 16:02:00,54.0,34.0,29.95,SW,214,15.0,20.0,46,-99.99,,,-99.99,655.000000,,2013-04-06 22:02:00,
2013-04-06 16:12:00,55.0,34.0,29.94,SW,216,17.0,24.0,44,-99.99,,,-99.99,689.099976,,2013-04-06 22:12:00,
2013-04-06 16:22:00,55.0,33.0,29.94,SW,215,15.0,23.0,43,-99.99,,,-99.99,449.299988,,2013-04-06 22:22:00,
2013-04-06 16:33:00,54.0,32.0,29.94,SW,221,17.0,29.0,43,-99.99,,,-99.99,148.500000,,2013-04-06 22:33:00,
2013-04-06 16:42:00,54.0,35.0,29.94,WSW,254,18.0,32.0,48,-99.99,,,-99.99,647.900024,,2013-04-06 22:42:00,
2013-04-06 16:52:00,54.0,35.0,29.94,West,264,18.0,29.0,49,-99.99,,,-99.99,613.599976,,2013-04-06 22:52:00,
2013-04-06 17:02:00,54.0,33.0,29.94,WSW,257,18.0,28.0,46,-99.99,,,-99.99,543.700012,,2013-04-06 23:02:00,
2013-04-06 17:12:00,53.0,34.0,29.94,WSW,256,18.0,29.0,48,-99.99,,,-99.99,517.599976,,2013-04-06 23:12:00,
2013-04-06 17:22:00,53.0,34.0,29.94,WSW,253,15.0,23.0,47,-99.99,,,-99.99,556.200012,,2013-04-06 23:22:00,
2013-04-06 17:33:00,54.0,33.0,29.94,West,262,15.0,27.0,45,-99.99,,,-99.99,509.100006,,2013-04-06 23:33:00,
2013-04-06 17:42:00,53.0,32.0,29.94,WSW,249,15.0,25.0,44,-99.99,,,-99.99,468.799988,,2013-04-06 23:42:00,
2013-04-06 17:52:00,53.0,31.0,29.94,WSW,238,15.0,24.0,41,-99.99,,,-99.99,410.299988,,2013-04-06 23:52:00,
2013-04-06 18:02:00,53.0,31.0,29.94,WSW,245,14.0,23.0,43,-99.99,,,-99.99,215.300003,,2013-04-07 00:02:00,
2013-04-06 18:11:00,52.0,31.0,29.95,WSW,239,15.0,21.0,44,-99.99,,,-99.99,100.900002,,2013-04-07 00:11:00,
2013-04-06 18:32:00,51.0,31.0,29.95,SW,228,16.0,25.0,46,-99.99,,,-99.99,108.800003,,2013-04-07 00:32:00,
2013-04-06 18:42:00,51.0,32.0,29.95,WSW,240,13.0,20.0,48,-99.99,,,-99.99,109.599998,,2013-04-07 00:42:00,
2013-04-06 18:52:00,51.0,34.0,29.95,SW,227,16.0,23.0,51,-99.99,,,-99.99,101.699997,,2013-04-07 00:52:00,
2013-04-06 19:02:00,50.0,33.0,29.95,SW,230,16.0,24.0,52,-99.99,,,-99.99,92.699997,,2013-04-07 01:02:00,
2013-04-06 19:11:00,50.0,34.0,29.95,SW,227,13.0,22.0,54,-99.99,,,-99.99,70.199997,,2013-04-07 01:11:00,
2013-04-06 19:21:00,50.0,35.0,29.95,SW,225,13.0,16.0,55,-99.99,,,-99.99,63.900002,,2013-04-07 01:21:00,
2013-04-06 19:32:00,50.0,35.0,29.95,SW,225,13.0,22.0,55,-99.99,,,-99.99,53.000000,,2013-04-07 01:32:00,
2013-04-06 19:42:00,50.0,35.0,29.94,SW,224,13.0,21.0,56,-99.99,,,-99.99,103.000000,,2013-04-07 01:42:00,
2013-04-06 19:52:00,50.0,34.0,29.94,SW,230,15.0,20.0,54,-99.99,,,-99.99,41.099998,,2013-04-07 01:52:00,
2013-04-06 20:02:00,50.0,33.0,29.94,SW,214,11.0,16.0,53,-99.99,,,-99.99,20.600000,,2013-04-07 02:02:00,
2013-04-06 20:11:00,49.0,32.0,29.94,SW,214,11.0,15.0,52,-99.99,,,-99.99,8.400000,,2013-04-07 02:11:00,
2013-04-06 20:22:00,49.0,32.0,29.94,SW,214,11.0,15.0,53,-99.99,,,-99.99,3.400000,,2013-04-07 02:22:00,
2013-04-06 20:32:00,48.0,33.0,29.94,SW,216,12.0,16.0,55,-99.99,,,-99.99,0.900000,,2013-04-07 02:32:00,
2013-04-06 20:42:00,47.0,32.0,29.94,SW,215,11.0,15.0,55,-99.99,,,-99.99,0.000000,,2013-04-07 02:42:00,
2013-04-06 20:51:00,47.0,31.0,29.95,SW,217,9.0,15.0,54,-99.99,,,-99.99,-0.100000,,2013-04-07 02:51:00,
2013-04-06 21:02:00,46.0,31.0,29.95,SW,221,9.0,14.0,55,-99.99,,,-99.99,-0.100000,,2013-04-07 03:02:00,
2013-04-06 21:11:00,46.0,31.0,29.95,SSW,210,9.0,13.0,56,-99.99,,,-99.99,-0.300000,,2013-04-07 03:11:00,
2013-04-06 21:21:00,45.0,32.0,29.95,SW,219,10.0,15.0,57,-99.99,,,-99.99,-0.100000,,2013-04-07 03:21:00,
2013-04-06 21:33:00,46.0,32.0,29.96,SW,216,10.0,14.0,57,-99.99,,,-99.99,0.000000,,2013-04-07 03:33:00,
2013-04-06 21:42:00,46.0,32.0,29.96,SSW,212,9.0,12.0,58,-99.99,,,-99.99,-0.100000,,2013-04-07 03:42:00,
2013-04-06 21:52:00,45.0,32.0,29.96,SSW,206,11.0,19.0,59,-99.99,,,-99.99,0.000000,,2013-04-07 03:52:00,
2013-04-06 22:02:00,44.0,34.0,29.96,SSW,204,17.0,24.0,67,-99.99,,,-99.99,-0.100000,,2013-04-07 04:02:00,
2013-04-06 22:12:00,43.0,36.0,29.96,SSW,199,15.0,19.0,74,-99.99,,,-99.99,-0.200000,,2013-04-07 04:12:00,
2013-04-06 22:22:00,43.0,36.0,29.96,SSW,207,13.0,17.0,77,-99.99,,,-99.99,-0.100000,,2013-04-07 04:22:00,
2013-04-06 22:32:00,42.0,36.0,29.95,SSW,202,14.0,19.0,76,-99.99,,,-99.99,-0.200000,,2013-04-07 04:32:00,
2013-04-06 22:42:00,43.0,35.0,29.96,SSW,199,12.0,17.0,75,-99.99,,,-99.99,0.000000,,2013-04-07 04:42:00,
2013-04-06 22:52:00,43.0,35.0,29.96,SSW,194,12.0,17.0,74,-99.99,,,-99.99,-0.100000,,2013-04-07 04:52:00,
2013-04-06 23:02:00,43.0,35.0,29.96,SSW,207,13.0,19.0,72,-99.99,,,-99.99,-0.100000,,2013-04-07 05:02:00,
2013-04-06 23:11:00,43.0,35.0,29.96,SSW,212,12.0,18.0,72,-99.99,,,-99.99,0.100000,,2013-04-07 05:11:00,
2013-04-06 23:22:00,43.0,34.0,29.96,SSW,208,11.0,17.0,71,-99.99,,,-99.99,-0.100000,,2013-04-07 05:22:00,
2013-04-06 23:32:00,43.0,34.0,29.95,SSW,201,11.0,16.0,71,-99.99,,,-99.99,0.000000,,2013-04-07 05:32:00,
2013-04-06 23:42:00,43.0,34.0,29.95,SSW,207,11.0,17.0,71,-99.99,,,-99.99,0.000000,,2013-04-07 05:42:00,
2013-04-06 23:51:00,43.0,34.0,29.95,SSW,209,9.0,13.0,71,-99.99,,,-99.99,-0.100000,,2013-04-07 05:51:00,